sensor_id;sensor_type;location;lat;lon;timestamp;P1;durP1;ratioP1;P2;durP2;ratioP2
50954;SDS011;36966;48.064;-0.792;2023-02-01T00:00:20;17.65;;;1.95;;
50954;SDS011;36966;48.064;-0.792;2023-02-01T00:02:39;8.50;;;1.67;;
50954;SDS011;36966;48.064;-0.792;2023-02-01T00:04:59;5.63;;;1.65;;
50954;SDS011;36966;48.064;-0.792;2023-02-01T00:07:18;6.88;;;1.33;;
50954;SDS011;36966;48.064;-0.792;2023-02-01T00:09:38;7.85;;;1.27;;
50954;SDS011;36966;48.064;-0.792;2023-02-01T00:11:57;9.43;;;1.52;;
50954;SDS011;36966;48.064;-0.792;2023-02-01T00:14:18;9.38;;;1.10;;
50954;SDS011;36966;48.064;-0.792;2023-02-01T00:16:37;7.97;;;1.27;;
50954;SDS011;36966;48.064;-0.792;2023-02-01T00:19:01;8.15;;;0.82;;
50954;SDS011;36966;48.064;-0.792;2023-02-01T00:21:22;13.05;;;1.50;;
50954;SDS011;36966;48.064;-0.792;2023-02-01T00:23:41;15.68;;;2.28;;
50954;SDS011;36966;48.064;-0.792;2023-02-01T00:26:01;8.38;;;1.30;;
50954;SDS011;36966;48.064;-0.792;2023-02-01T00:28:22;8.15;;;1.83;;
50954;SDS011;36966;48.064;-0.792;2023-02-01T00:30:41;7.35;;;0.93;;
50954;SDS011;36966;48.064;-0.792;2023-02-01T00:33:00;8.93;;;1.20;;
50954;SDS011;36966;48.064;-0.792;2023-02-01T00:35:19;8.88;;;1.42;;
50954;SDS011;36966;48.064;-0.792;2023-02-01T00:37:38;8.25;;;1.42;;
50954;SDS011;36966;48.064;-0.792;2023-02-01T00:39:57;10.40;;;1.83;;
50954;SDS011;36966;48.064;-0.792;2023-02-01T00:42:17;9.02;;;2.28;;
50954;SDS011;36966;48.064;-0.792;2023-02-01T00:44:36;8.75;;;1.20;;
50954;SDS011;36966;48.064;-0.792;2023-02-01T00:46:55;6.63;;;1.65;;
50954;SDS011;36966;48.064;-0.792;2023-02-01T00:49:14;10.70;;;1.15;;
50954;SDS011;36966;48.064;-0.792;2023-02-01T00:51:33;7.88;;;1.60;;
50954;SDS011;36966;48.064;-0.792;2023-02-01T00:53:52;8.80;;;1.27;;
50954;SDS011;36966;48.064;-0.792;2023-02-01T00:56:12;12.38;;;1.48;;
50954;SDS011;36966;48.064;-0.792;2023-02-01T00:58:32;10.68;;;1.63;;
50954;SDS011;36966;48.064;-0.792;2023-02-01T01:03:21;12.68;;;1.20;;
50954;SDS011;36966;48.064;-0.792;2023-02-01T01:05:40;10.68;;;1.42;;
50954;SDS011;36966;48.064;-0.792;2023-02-01T01:07:59;6.70;;;1.50;;
50954;SDS011;36966;48.064;-0.792;2023-02-01T01:10:18;12.10;;;1.17;;
50954;SDS011;36966;48.064;-0.792;2023-02-01T01:12:37;10.68;;;1.10;;
50954;SDS011;36966;48.064;-0.792;2023-02-01T01:14:56;9.05;;;1.10;;
50954;SDS011;36966;48.064;-0.792;2023-02-01T01:17:16;6.70;;;1.30;;
50954;SDS011;36966;48.064;-0.792;2023-02-01T01:19:35;14.13;;;1.90;;
50954;SDS011;36966;48.064;-0.792;2023-02-01T01:21:55;10.25;;;1.27;;
50954;SDS011;36966;48.064;-0.792;2023-02-01T01:24:14;9.38;;;1.17;;
50954;SDS011;36966;48.064;-0.792;2023-02-01T01:26:34;8.38;;;1.00;;
50954;SDS011;36966;48.064;-0.792;2023-02-01T01:28:54;7.15;;;0.80;;
50954;SDS011;36966;48.064;-0.792;2023-02-01T01:31:15;8.85;;;1.55;;
50954;SDS011;36966;48.064;-0.792;2023-02-01T01:33:35;13.75;;;1.65;;
50954;SDS011;36966;48.064;-0.792;2023-02-01T01:35:54;7.97;;;1.33;;
50954;SDS011;36966;48.064;-0.792;2023-02-01T01:38:13;11.70;;;1.42;;
50954;SDS011;36966;48.064;-0.792;2023-02-01T01:40:32;9.13;;;0.65;;
50954;SDS011;36966;48.064;-0.792;2023-02-01T01:42:51;9.15;;;1.00;;
50954;SDS011;36966;48.064;-0.792;2023-02-01T01:45:34;6.97;;;1.52;;
50954;SDS011;36966;48.064;-0.792;2023-02-01T01:47:54;12.65;;;1.95;;
50954;SDS011;36966;48.064;-0.792;2023-02-01T01:50:16;13.02;;;1.77;;
50954;SDS011;36966;48.064;-0.792;2023-02-01T01:52:38;11.45;;;1.30;;
50954;SDS011;36966;48.064;-0.792;2023-02-01T01:55:00;10.30;;;1.02;;
50954;SDS011;36966;48.064;-0.792;2023-02-01T01:57:21;10.40;;;1.63;;
50954;SDS011;36966;48.064;-0.792;2023-02-01T01:59:56;12.45;;;1.20;;
50954;SDS011;36966;48.064;-0.792;2023-02-01T02:02:27;9.73;;;1.38;;
50954;SDS011;36966;48.064;-0.792;2023-02-01T02:04:47;12.25;;;1.73;;
50954;SDS011;36966;48.064;-0.792;2023-02-01T02:07:08;11.68;;;1.02;;
50954;SDS011;36966;48.064;-0.792;2023-02-01T02:09:34;5.63;;;1.00;;
50954;SDS011;36966;48.064;-0.792;2023-02-01T02:11:53;7.60;;;1.25;;
50954;SDS011;36966;48.064;-0.792;2023-02-01T02:14:13;13.52;;;1.00;;
50954;SDS011;36966;48.064;-0.792;2023-02-01T02:16:52;11.70;;;2.53;;
50954;SDS011;36966;48.064;-0.792;2023-02-01T02:22:02;11.60;;;1.25;;
50954;SDS011;36966;48.064;-0.792;2023-02-01T02:33:21;8.38;;;1.10;;
50954;SDS011;36966;48.064;-0.792;2023-02-01T02:39:03;4.20;;;1.13;;
50954;SDS011;36966;48.064;-0.792;2023-02-01T02:44:10;9.73;;;1.30;;
50954;SDS011;36966;48.064;-0.792;2023-02-01T02:47:00;10.77;;;1.00;;
50954;SDS011;36966;48.064;-0.792;2023-02-01T02:49:49;10.60;;;1.90;;
50954;SDS011;36966;48.064;-0.792;2023-02-01T02:52:37;10.85;;;1.50;;
50954;SDS011;36966;48.064;-0.792;2023-02-01T02:55:23;10.75;;;1.23;;
50954;SDS011;36966;48.064;-0.792;2023-02-01T02:57:43;17.13;;;1.85;;
50954;SDS011;36966;48.064;-0.792;2023-02-01T03:00:23;7.72;;;1.00;;
50954;SDS011;36966;48.064;-0.792;2023-02-01T03:03:06;14.07;;;1.30;;
50954;SDS011;36966;48.064;-0.792;2023-02-01T03:05:46;12.07;;;1.52;;
50954;SDS011;36966;48.064;-0.792;2023-02-01T03:16:07;10.25;;;1.42;;
50954;SDS011;36966;48.064;-0.792;2023-02-01T03:21:02;6.88;;;1.13;;
50954;SDS011;36966;48.064;-0.792;2023-02-01T03:23:26;11.80;;;1.20;;
50954;SDS011;36966;48.064;-0.792;2023-02-01T03:25:48;7.57;;;1.00;;
50954;SDS011;36966;48.064;-0.792;2023-02-01T03:28:10;11.32;;;1.02;;
50954;SDS011;36966;48.064;-0.792;2023-02-01T03:30:33;7.63;;;1.33;;
50954;SDS011;36966;48.064;-0.792;2023-02-01T03:33:00;6.40;;;1.17;;
50954;SDS011;36966;48.064;-0.792;2023-02-01T03:35:24;10.05;;;1.05;;
50954;SDS011;36966;48.064;-0.792;2023-02-01T03:37:48;10.90;;;1.10;;
50954;SDS011;36966;48.064;-0.792;2023-02-01T03:40:08;9.68;;;0.80;;
50954;SDS011;36966;48.064;-0.792;2023-02-01T03:45:03;8.27;;;1.98;;
50954;SDS011;36966;48.064;-0.792;2023-02-01T03:47:30;10.20;;;1.40;;
50954;SDS011;36966;48.064;-0.792;2023-02-01T03:52:23;14.95;;;1.83;;
50954;SDS011;36966;48.064;-0.792;2023-02-01T03:54:47;13.60;;;1.27;;
50954;SDS011;36966;48.064;-0.792;2023-02-01T03:57:09;6.85;;;1.15;;
50954;SDS011;36966;48.064;-0.792;2023-02-01T03:59:32;8.75;;;1.33;;
50954;SDS011;36966;48.064;-0.792;2023-02-01T04:01:51;14.70;;;1.65;;
50954;SDS011;36966;48.064;-0.792;2023-02-01T04:04:11;8.52;;;1.40;;
50954;SDS011;36966;48.064;-0.792;2023-02-01T04:06:38;9.32;;;1.27;;
50954;SDS011;36966;48.064;-0.792;2023-02-01T04:08:57;19.85;;;1.50;;
50954;SDS011;36966;48.064;-0.792;2023-02-01T04:11:16;9.25;;;0.73;;
50954;SDS011;36966;48.064;-0.792;2023-02-01T04:13:36;15.32;;;1.23;;
50954;SDS011;36966;48.064;-0.792;2023-02-01T04:15:56;5.90;;;1.45;;
50954;SDS011;36966;48.064;-0.792;2023-02-01T04:18:15;11.77;;;1.35;;
50954;SDS011;36966;48.064;-0.792;2023-02-01T04:20:34;8.00;;;1.52;;
50954;SDS011;36966;48.064;-0.792;2023-02-01T04:22:53;8.38;;;0.80;;
50954;SDS011;36966;48.064;-0.792;2023-02-01T04:25:13;15.68;;;1.30;;
50954;SDS011;36966;48.064;-0.792;2023-02-01T04:27:32;12.85;;;1.70;;
50954;SDS011;36966;48.064;-0.792;2023-02-01T04:29:52;7.00;;;0.77;;
50954;SDS011;36966;48.064;-0.792;2023-02-01T04:32:11;8.82;;;1.00;;
50954;SDS011;36966;48.064;-0.792;2023-02-01T04:34:31;8.75;;;1.17;;
50954;SDS011;36966;48.064;-0.792;2023-02-01T04:36:51;7.97;;;1.48;;
50954;SDS011;36966;48.064;-0.792;2023-02-01T04:39:10;14.25;;;1.60;;
50954;SDS011;36966;48.064;-0.792;2023-02-01T04:41:30;9.48;;;1.15;;
50954;SDS011;36966;48.064;-0.792;2023-02-01T04:43:49;11.85;;;1.00;;
50954;SDS011;36966;48.064;-0.792;2023-02-01T04:46:09;9.25;;;1.17;;
50954;SDS011;36966;48.064;-0.792;2023-02-01T04:48:28;7.95;;;1.00;;
50954;SDS011;36966;48.064;-0.792;2023-02-01T04:50:48;19.25;;;1.30;;
50954;SDS011;36966;48.064;-0.792;2023-02-01T04:53:07;9.63;;;1.95;;
50954;SDS011;36966;48.064;-0.792;2023-02-01T04:55:27;9.18;;;1.17;;
50954;SDS011;36966;48.064;-0.792;2023-02-01T04:57:46;7.93;;;1.45;;
50954;SDS011;36966;48.064;-0.792;2023-02-01T05:00:06;11.23;;;1.08;;
50954;SDS011;36966;48.064;-0.792;2023-02-01T05:02:27;6.75;;;0.98;;
50954;SDS011;36966;48.064;-0.792;2023-02-01T05:04:46;6.38;;;0.98;;
50954;SDS011;36966;48.064;-0.792;2023-02-01T05:07:05;9.95;;;1.35;;
50954;SDS011;36966;48.064;-0.792;2023-02-01T05:09:24;6.40;;;1.05;;
50954;SDS011;36966;48.064;-0.792;2023-02-01T05:11:43;12.10;;;1.63;;
50954;SDS011;36966;48.064;-0.792;2023-02-01T05:14:21;8.15;;;1.42;;
50954;SDS011;36966;48.064;-0.792;2023-02-01T05:16:40;6.93;;;0.77;;
50954;SDS011;36966;48.064;-0.792;2023-02-01T05:18:59;9.80;;;1.17;;
50954;SDS011;36966;48.064;-0.792;2023-02-01T05:21:19;13.07;;;1.20;;
50954;SDS011;36966;48.064;-0.792;2023-02-01T05:23:38;11.77;;;2.10;;
50954;SDS011;36966;48.064;-0.792;2023-02-01T05:26:16;14.80;;;1.15;;
50954;SDS011;36966;48.064;-0.792;2023-02-01T05:28:35;10.23;;;1.20;;
50954;SDS011;36966;48.064;-0.792;2023-02-01T05:30:54;6.35;;;1.02;;
50954;SDS011;36966;48.064;-0.792;2023-02-01T05:33:13;9.80;;;1.23;;
50954;SDS011;36966;48.064;-0.792;2023-02-01T05:35:33;8.32;;;1.40;;
50954;SDS011;36966;48.064;-0.792;2023-02-01T05:37:52;17.83;;;1.40;;
50954;SDS011;36966;48.064;-0.792;2023-02-01T05:40:11;8.13;;;1.38;;
50954;SDS011;36966;48.064;-0.792;2023-02-01T05:42:31;10.02;;;1.98;;
50954;SDS011;36966;48.064;-0.792;2023-02-01T05:44:50;18.85;;;2.63;;
50954;SDS011;36966;48.064;-0.792;2023-02-01T05:47:09;11.30;;;1.60;;
50954;SDS011;36966;48.064;-0.792;2023-02-01T05:49:28;10.10;;;0.93;;
50954;SDS011;36966;48.064;-0.792;2023-02-01T05:51:48;12.90;;;1.45;;
50954;SDS011;36966;48.064;-0.792;2023-02-01T05:54:07;12.30;;;2.05;;
50954;SDS011;36966;48.064;-0.792;2023-02-01T05:56:27;11.50;;;1.00;;
50954;SDS011;36966;48.064;-0.792;2023-02-01T05:58:46;9.82;;;1.40;;
50954;SDS011;36966;48.064;-0.792;2023-02-01T06:01:05;12.32;;;1.35;;
50954;SDS011;36966;48.064;-0.792;2023-02-01T06:03:24;5.28;;;0.88;;
50954;SDS011;36966;48.064;-0.792;2023-02-01T06:05:44;15.18;;;2.13;;
50954;SDS011;36966;48.064;-0.792;2023-02-01T06:08:04;6.95;;;1.00;;
50954;SDS011;36966;48.064;-0.792;2023-02-01T06:10:26;8.02;;;1.20;;
50954;SDS011;36966;48.064;-0.792;2023-02-01T06:12:45;7.90;;;1.52;;
50954;SDS011;36966;48.064;-0.792;2023-02-01T06:15:05;10.25;;;1.77;;
50954;SDS011;36966;48.064;-0.792;2023-02-01T06:17:25;8.60;;;1.95;;
50954;SDS011;36966;48.064;-0.792;2023-02-01T06:19:44;7.35;;;1.42;;
50954;SDS011;36966;48.064;-0.792;2023-02-01T06:22:03;13.18;;;1.27;;
50954;SDS011;36966;48.064;-0.792;2023-02-01T06:24:24;13.65;;;1.35;;
50954;SDS011;36966;48.064;-0.792;2023-02-01T06:26:43;8.63;;;1.23;;
50954;SDS011;36966;48.064;-0.792;2023-02-01T06:29:02;15.30;;;1.83;;
50954;SDS011;36966;48.064;-0.792;2023-02-01T06:31:22;12.95;;;1.90;;
50954;SDS011;36966;48.064;-0.792;2023-02-01T06:33:42;13.35;;;1.70;;
50954;SDS011;36966;48.064;-0.792;2023-02-01T06:36:02;13.63;;;1.65;;
50954;SDS011;36966;48.064;-0.792;2023-02-01T06:38:23;12.05;;;1.42;;
50954;SDS011;36966;48.064;-0.792;2023-02-01T06:40:44;12.57;;;1.40;;
50954;SDS011;36966;48.064;-0.792;2023-02-01T06:43:15;13.38;;;1.65;;
50954;SDS011;36966;48.064;-0.792;2023-02-01T06:45:34;16.55;;;2.33;;
50954;SDS011;36966;48.064;-0.792;2023-02-01T06:47:53;7.18;;;1.40;;
50954;SDS011;36966;48.064;-0.792;2023-02-01T06:50:12;12.90;;;1.70;;
50954;SDS011;36966;48.064;-0.792;2023-02-01T06:52:31;9.90;;;2.00;;
50954;SDS011;36966;48.064;-0.792;2023-02-01T06:54:50;8.80;;;1.70;;
50954;SDS011;36966;48.064;-0.792;2023-02-01T06:57:09;12.15;;;2.45;;
50954;SDS011;36966;48.064;-0.792;2023-02-01T06:59:29;16.30;;;1.83;;
50954;SDS011;36966;48.064;-0.792;2023-02-01T07:01:48;12.05;;;1.98;;
50954;SDS011;36966;48.064;-0.792;2023-02-01T07:04:09;17.33;;;2.22;;
50954;SDS011;36966;48.064;-0.792;2023-02-01T07:06:29;11.70;;;1.65;;
50954;SDS011;36966;48.064;-0.792;2023-02-01T07:08:48;14.43;;;1.77;;
50954;SDS011;36966;48.064;-0.792;2023-02-01T07:11:08;7.43;;;1.25;;
50954;SDS011;36966;48.064;-0.792;2023-02-01T07:13:29;14.45;;;1.92;;
50954;SDS011;36966;48.064;-0.792;2023-02-01T07:15:49;10.00;;;1.55;;
50954;SDS011;36966;48.064;-0.792;2023-02-01T07:18:08;9.70;;;1.38;;
50954;SDS011;36966;48.064;-0.792;2023-02-01T07:20:27;9.38;;;1.77;;
50954;SDS011;36966;48.064;-0.792;2023-02-01T07:22:47;13.18;;;1.83;;
50954;SDS011;36966;48.064;-0.792;2023-02-01T07:25:06;9.88;;;2.22;;
50954;SDS011;36966;48.064;-0.792;2023-02-01T07:27:26;7.10;;;1.45;;
50954;SDS011;36966;48.064;-0.792;2023-02-01T07:29:45;8.63;;;1.88;;
50954;SDS011;36966;48.064;-0.792;2023-02-01T07:32:04;13.05;;;1.52;;
50954;SDS011;36966;48.064;-0.792;2023-02-01T07:34:24;18.77;;;2.25;;
50954;SDS011;36966;48.064;-0.792;2023-02-01T07:36:43;16.63;;;2.20;;
50954;SDS011;36966;48.064;-0.792;2023-02-01T07:39:05;13.85;;;1.80;;
50954;SDS011;36966;48.064;-0.792;2023-02-01T07:41:24;9.93;;;1.55;;
50954;SDS011;36966;48.064;-0.792;2023-02-01T07:43:43;14.60;;;2.92;;
50954;SDS011;36966;48.064;-0.792;2023-02-01T07:46:03;8.15;;;2.30;;
50954;SDS011;36966;48.064;-0.792;2023-02-01T07:48:23;10.40;;;1.98;;
50954;SDS011;36966;48.064;-0.792;2023-02-01T07:50:44;9.45;;;2.53;;
50954;SDS011;36966;48.064;-0.792;2023-02-01T07:53:03;14.90;;;2.45;;
50954;SDS011;36966;48.064;-0.792;2023-02-01T07:55:22;11.38;;;2.20;;
50954;SDS011;36966;48.064;-0.792;2023-02-01T07:57:43;9.98;;;1.60;;
50954;SDS011;36966;48.064;-0.792;2023-02-01T08:00:03;12.60;;;1.70;;
50954;SDS011;36966;48.064;-0.792;2023-02-01T08:02:42;10.23;;;1.40;;
50954;SDS011;36966;48.064;-0.792;2023-02-01T08:05:01;20.15;;;2.65;;
50954;SDS011;36966;48.064;-0.792;2023-02-01T08:07:20;11.35;;;2.08;;
50954;SDS011;36966;48.064;-0.792;2023-02-01T08:09:40;10.80;;;1.67;;
50954;SDS011;36966;48.064;-0.792;2023-02-01T08:11:59;12.05;;;2.00;;
50954;SDS011;36966;48.064;-0.792;2023-02-01T08:14:20;14.88;;;2.33;;
50954;SDS011;36966;48.064;-0.792;2023-02-01T08:16:39;12.55;;;1.83;;
50954;SDS011;36966;48.064;-0.792;2023-02-01T08:18:58;17.77;;;3.53;;
50954;SDS011;36966;48.064;-0.792;2023-02-01T08:21:19;7.60;;;1.63;;
50954;SDS011;36966;48.064;-0.792;2023-02-01T08:23:41;8.73;;;1.70;;
50954;SDS011;36966;48.064;-0.792;2023-02-01T08:26:08;9.70;;;1.40;;
50954;SDS011;36966;48.064;-0.792;2023-02-01T08:28:29;13.52;;;1.90;;
50954;SDS011;36966;48.064;-0.792;2023-02-01T08:30:48;11.82;;;2.28;;
50954;SDS011;36966;48.064;-0.792;2023-02-01T08:33:08;8.90;;;1.60;;
50954;SDS011;36966;48.064;-0.792;2023-02-01T08:35:28;9.93;;;1.40;;
50954;SDS011;36966;48.064;-0.792;2023-02-01T08:37:48;14.93;;;2.50;;
50954;SDS011;36966;48.064;-0.792;2023-02-01T08:40:09;12.30;;;1.58;;
50954;SDS011;36966;48.064;-0.792;2023-02-01T08:42:29;13.30;;;2.17;;
50954;SDS011;36966;48.064;-0.792;2023-02-01T08:45:08;12.65;;;1.65;;
50954;SDS011;36966;48.064;-0.792;2023-02-01T08:47:28;14.20;;;2.25;;
50954;SDS011;36966;48.064;-0.792;2023-02-01T08:49:47;11.52;;;1.92;;
50954;SDS011;36966;48.064;-0.792;2023-02-01T08:52:07;9.55;;;2.22;;
50954;SDS011;36966;48.064;-0.792;2023-02-01T08:54:26;12.15;;;1.88;;
50954;SDS011;36966;48.064;-0.792;2023-02-01T08:56:45;13.30;;;3.17;;
50954;SDS011;36966;48.064;-0.792;2023-02-01T08:59:04;8.20;;;1.83;;
50954;SDS011;36966;48.064;-0.792;2023-02-01T09:01:23;13.55;;;2.40;;
50954;SDS011;36966;48.064;-0.792;2023-02-01T09:03:43;12.00;;;1.75;;
50954;SDS011;36966;48.064;-0.792;2023-02-01T09:06:04;11.73;;;1.80;;
50954;SDS011;36966;48.064;-0.792;2023-02-01T09:08:28;13.25;;;1.80;;
50954;SDS011;36966;48.064;-0.792;2023-02-01T09:10:47;10.80;;;2.05;;
50954;SDS011;36966;48.064;-0.792;2023-02-01T09:13:07;11.20;;;2.75;;
50954;SDS011;36966;48.064;-0.792;2023-02-01T09:15:26;11.70;;;3.15;;
50954;SDS011;36966;48.064;-0.792;2023-02-01T09:17:45;13.88;;;1.92;;
50954;SDS011;36966;48.064;-0.792;2023-02-01T09:20:05;12.57;;;3.30;;
50954;SDS011;36966;48.064;-0.792;2023-02-01T09:22:24;11.32;;;1.30;;
50954;SDS011;36966;48.064;-0.792;2023-02-01T09:24:43;13.43;;;2.20;;
50954;SDS011;36966;48.064;-0.792;2023-02-01T09:27:03;7.80;;;1.70;;
50954;SDS011;36966;48.064;-0.792;2023-02-01T09:29:22;11.60;;;1.17;;
50954;SDS011;36966;48.064;-0.792;2023-02-01T09:31:41;12.85;;;1.45;;
50954;SDS011;36966;48.064;-0.792;2023-02-01T09:34:01;11.68;;;2.13;;
50954;SDS011;36966;48.064;-0.792;2023-02-01T09:36:20;14.73;;;3.40;;
50954;SDS011;36966;48.064;-0.792;2023-02-01T09:38:40;13.48;;;2.85;;
50954;SDS011;36966;48.064;-0.792;2023-02-01T09:40:59;19.00;;;3.28;;
50954;SDS011;36966;48.064;-0.792;2023-02-01T09:46:24;13.00;;;2.88;;
50954;SDS011;36966;48.064;-0.792;2023-02-01T09:48:19;10.75;;;2.88;;
50954;SDS011;36966;48.064;-0.792;2023-02-01T09:50:48;18.42;;;2.20;;
50954;SDS011;36966;48.064;-0.792;2023-02-01T09:53:15;12.48;;;1.92;;
50954;SDS011;36966;48.064;-0.792;2023-02-01T09:55:47;9.82;;;2.72;;
50954;SDS011;36966;48.064;-0.792;2023-02-01T10:00:51;14.45;;;2.92;;
50954;SDS011;36966;48.064;-0.792;2023-02-01T10:03:13;11.50;;;1.80;;
50954;SDS011;36966;48.064;-0.792;2023-02-01T10:10:49;13.30;;;1.92;;
50954;SDS011;36966;48.064;-0.792;2023-02-01T10:13:14;12.80;;;1.70;;
50954;SDS011;36966;48.064;-0.792;2023-02-01T10:21:17;13.80;;;2.50;;
50954;SDS011;36966;48.064;-0.792;2023-02-01T10:26:44;18.63;;;1.83;;
50954;SDS011;36966;48.064;-0.792;2023-02-01T10:29:13;10.88;;;1.88;;
50954;SDS011;36966;48.064;-0.792;2023-02-01T10:31:37;14.75;;;2.17;;
50954;SDS011;36966;48.064;-0.792;2023-02-01T10:33:58;12.85;;;2.58;;
50954;SDS011;36966;48.064;-0.792;2023-02-01T10:36:24;13.10;;;2.63;;
50954;SDS011;36966;48.064;-0.792;2023-02-01T10:38:48;10.32;;;1.95;;
50954;SDS011;36966;48.064;-0.792;2023-02-01T10:41:15;8.75;;;2.35;;
50954;SDS011;36966;48.064;-0.792;2023-02-01T10:43:36;11.20;;;1.60;;
50954;SDS011;36966;48.064;-0.792;2023-02-01T10:45:57;15.23;;;2.67;;
50954;SDS011;36966;48.064;-0.792;2023-02-01T10:48:16;14.32;;;1.83;;
50954;SDS011;36966;48.064;-0.792;2023-02-01T10:51:19;18.38;;;2.28;;
50954;SDS011;36966;48.064;-0.792;2023-02-01T10:53:21;16.80;;;2.70;;
50954;SDS011;36966;48.064;-0.792;2023-02-01T10:55:49;12.23;;;2.10;;
50954;SDS011;36966;48.064;-0.792;2023-02-01T10:58:16;13.52;;;2.67;;
50954;SDS011;36966;48.064;-0.792;2023-02-01T11:00:52;15.50;;;1.60;;
50954;SDS011;36966;48.064;-0.792;2023-02-01T11:05:52;11.70;;;1.98;;
50954;SDS011;36966;48.064;-0.792;2023-02-01T11:08:15;14.50;;;2.22;;
50954;SDS011;36966;48.064;-0.792;2023-02-01T11:10:38;13.88;;;1.90;;
50954;SDS011;36966;48.064;-0.792;2023-02-01T11:13:01;12.07;;;1.55;;
50954;SDS011;36966;48.064;-0.792;2023-02-01T11:15:22;23.05;;;2.38;;
50954;SDS011;36966;48.064;-0.792;2023-02-01T11:17:46;9.65;;;1.45;;
50954;SDS011;36966;48.064;-0.792;2023-02-01T11:20:17;8.32;;;1.90;;
50954;SDS011;36966;48.064;-0.792;2023-02-01T11:22:57;12.10;;;2.13;;
50954;SDS011;36966;48.064;-0.792;2023-02-01T11:25:17;14.30;;;1.83;;
50954;SDS011;36966;48.064;-0.792;2023-02-01T11:27:36;15.60;;;1.67;;
50954;SDS011;36966;48.064;-0.792;2023-02-01T11:29:59;11.85;;;1.95;;
50954;SDS011;36966;48.064;-0.792;2023-02-01T11:32:20;15.35;;;1.60;;
50954;SDS011;36966;48.064;-0.792;2023-02-01T11:34:46;16.73;;;1.88;;
50954;SDS011;36966;48.064;-0.792;2023-02-01T11:37:24;9.57;;;1.40;;
50954;SDS011;36966;48.064;-0.792;2023-02-01T11:39:59;15.88;;;2.53;;
50954;SDS011;36966;48.064;-0.792;2023-02-01T11:42:20;10.85;;;2.17;;
50954;SDS011;36966;48.064;-0.792;2023-02-01T11:44:41;8.10;;;2.35;;
50954;SDS011;36966;48.064;-0.792;2023-02-01T11:49:48;14.65;;;1.83;;
50954;SDS011;36966;48.064;-0.792;2023-02-01T11:57:33;12.18;;;1.48;;
50954;SDS011;36966;48.064;-0.792;2023-02-01T12:05:58;13.35;;;2.30;;
50954;SDS011;36966;48.064;-0.792;2023-02-01T12:08:46;18.38;;;2.63;;
50954;SDS011;36966;48.064;-0.792;2023-02-01T12:22:23;21.10;;;4.03;;
50954;SDS011;36966;48.064;-0.792;2023-02-01T12:27:46;13.00;;;2.45;;
50954;SDS011;36966;48.064;-0.792;2023-02-01T12:35:42;16.85;;;2.95;;
50954;SDS011;36966;48.064;-0.792;2023-02-01T12:40:21;20.08;;;2.78;;
50954;SDS011;36966;48.064;-0.792;2023-02-01T12:50:18;10.10;;;1.52;;
50954;SDS011;36966;48.064;-0.792;2023-02-01T12:52:44;14.82;;;1.95;;
50954;SDS011;36966;48.064;-0.792;2023-02-01T12:57:46;9.70;;;1.70;;
50954;SDS011;36966;48.064;-0.792;2023-02-01T13:02:51;15.02;;;3.35;;
50954;SDS011;36966;48.064;-0.792;2023-02-01T13:05:18;17.30;;;3.22;;
50954;SDS011;36966;48.064;-0.792;2023-02-01T13:12:56;14.48;;;2.28;;
50954;SDS011;36966;48.064;-0.792;2023-02-01T13:15:26;11.88;;;2.10;;
50954;SDS011;36966;48.064;-0.792;2023-02-01T13:17:49;10.95;;;1.30;;
50954;SDS011;36966;48.064;-0.792;2023-02-01T13:22:41;12.25;;;2.40;;
50954;SDS011;36966;48.064;-0.792;2023-02-01T13:25:34;8.05;;;1.30;;
50954;SDS011;36966;48.064;-0.792;2023-02-01T13:28:12;8.10;;;2.10;;
50954;SDS011;36966;48.064;-0.792;2023-02-01T13:35:40;9.20;;;1.63;;
50954;SDS011;36966;48.064;-0.792;2023-02-01T13:43:28;12.85;;;1.48;;
50954;SDS011;36966;48.064;-0.792;2023-02-01T13:45:50;9.38;;;1.88;;
50954;SDS011;36966;48.064;-0.792;2023-02-01T13:48:55;11.05;;;2.35;;
50954;SDS011;36966;48.064;-0.792;2023-02-01T13:50:58;14.38;;;2.72;;
50954;SDS011;36966;48.064;-0.792;2023-02-01T13:53:19;14.30;;;2.58;;
50954;SDS011;36966;48.064;-0.792;2023-02-01T13:55:45;19.23;;;2.45;;
50954;SDS011;36966;48.064;-0.792;2023-02-01T13:58:22;21.35;;;2.67;;
50954;SDS011;36966;48.064;-0.792;2023-02-01T14:00:48;21.40;;;2.25;;
50954;SDS011;36966;48.064;-0.792;2023-02-01T14:03:17;9.10;;;1.92;;
50954;SDS011;36966;48.064;-0.792;2023-02-01T14:13:04;5.28;;;1.25;;
50954;SDS011;36966;48.064;-0.792;2023-02-01T14:15:31;14.15;;;2.83;;
50954;SDS011;36966;48.064;-0.792;2023-02-01T14:17:51;18.58;;;2.85;;
50954;SDS011;36966;48.064;-0.792;2023-02-01T14:23:04;11.82;;;2.28;;
50954;SDS011;36966;48.064;-0.792;2023-02-01T14:25:32;15.57;;;2.45;;
50954;SDS011;36966;48.064;-0.792;2023-02-01T14:27:52;10.68;;;2.13;;
50954;SDS011;36966;48.064;-0.792;2023-02-01T14:30:14;13.68;;;1.70;;
50954;SDS011;36966;48.064;-0.792;2023-02-01T14:32:36;8.38;;;1.38;;
50954;SDS011;36966;48.064;-0.792;2023-02-01T14:34:58;14.00;;;2.10;;
50954;SDS011;36966;48.064;-0.792;2023-02-01T14:42:12;17.35;;;3.90;;
50954;SDS011;36966;48.064;-0.792;2023-02-01T14:44:36;9.27;;;2.05;;
50954;SDS011;36966;48.064;-0.792;2023-02-01T14:47:41;14.95;;;2.47;;
50954;SDS011;36966;48.064;-0.792;2023-02-01T14:50:02;9.27;;;2.40;;
50954;SDS011;36966;48.064;-0.792;2023-02-01T14:52:30;15.52;;;2.38;;
50954;SDS011;36966;48.064;-0.792;2023-02-01T14:54:54;13.45;;;2.13;;
50954;SDS011;36966;48.064;-0.792;2023-02-01T14:57:16;13.50;;;2.25;;
50954;SDS011;36966;48.064;-0.792;2023-02-01T14:59:37;10.27;;;1.98;;
50954;SDS011;36966;48.064;-0.792;2023-02-01T15:01:57;15.95;;;1.92;;
50954;SDS011;36966;48.064;-0.792;2023-02-01T15:04:17;7.95;;;2.13;;
50954;SDS011;36966;48.064;-0.792;2023-02-01T15:06:41;13.80;;;2.00;;
50954;SDS011;36966;48.064;-0.792;2023-02-01T15:11:52;16.95;;;2.00;;
50954;SDS011;36966;48.064;-0.792;2023-02-01T15:14:15;18.08;;;2.60;;
50954;SDS011;36966;48.064;-0.792;2023-02-01T15:16:34;15.73;;;2.17;;
50954;SDS011;36966;48.064;-0.792;2023-02-01T15:19:09;10.82;;;3.08;;
50954;SDS011;36966;48.064;-0.792;2023-02-01T15:21:32;16.55;;;5.88;;
50954;SDS011;36966;48.064;-0.792;2023-02-01T15:24:12;18.40;;;4.80;;
50954;SDS011;36966;48.064;-0.792;2023-02-01T15:26:33;17.08;;;3.30;;
50954;SDS011;36966;48.064;-0.792;2023-02-01T15:28:52;18.35;;;3.17;;
50954;SDS011;36966;48.064;-0.792;2023-02-01T15:31:11;11.52;;;3.00;;
50954;SDS011;36966;48.064;-0.792;2023-02-01T15:33:30;11.98;;;2.40;;
50954;SDS011;36966;48.064;-0.792;2023-02-01T15:35:51;14.10;;;3.15;;
50954;SDS011;36966;48.064;-0.792;2023-02-01T15:43:27;18.00;;;5.03;;
50954;SDS011;36966;48.064;-0.792;2023-02-01T15:45:48;15.13;;;5.18;;
50954;SDS011;36966;48.064;-0.792;2023-02-01T15:48:11;18.35;;;4.68;;
50954;SDS011;36966;48.064;-0.792;2023-02-01T15:50:38;14.73;;;4.25;;
50954;SDS011;36966;48.064;-0.792;2023-02-01T15:52:59;14.73;;;4.07;;
50954;SDS011;36966;48.064;-0.792;2023-02-01T15:55:19;22.60;;;5.20;;
50954;SDS011;36966;48.064;-0.792;2023-02-01T15:57:51;13.75;;;5.00;;
50954;SDS011;36966;48.064;-0.792;2023-02-01T16:02:51;17.48;;;4.82;;
50954;SDS011;36966;48.064;-0.792;2023-02-01T16:08:02;17.52;;;4.55;;
50954;SDS011;36966;48.064;-0.792;2023-02-01T16:10:31;18.27;;;4.82;;
50954;SDS011;36966;48.064;-0.792;2023-02-01T16:12:57;24.75;;;4.85;;
50954;SDS011;36966;48.064;-0.792;2023-02-01T16:15:18;18.17;;;4.35;;
50954;SDS011;36966;48.064;-0.792;2023-02-01T16:17:37;23.05;;;5.82;;
50954;SDS011;36966;48.064;-0.792;2023-02-01T16:19:57;20.45;;;5.53;;
50954;SDS011;36966;48.064;-0.792;2023-02-01T16:22:16;16.48;;;4.93;;
50954;SDS011;36966;48.064;-0.792;2023-02-01T16:24:35;18.33;;;5.57;;
50954;SDS011;36966;48.064;-0.792;2023-02-01T16:26:54;13.70;;;3.90;;
50954;SDS011;36966;48.064;-0.792;2023-02-01T16:29:13;21.70;;;5.22;;
50954;SDS011;36966;48.064;-0.792;2023-02-01T16:31:37;18.15;;;4.90;;